sim
Sign-in with your pilot id or email,
or register
Callsign
Passwort

Schedule Details

Flight Number: RYR6447 (1)
Departure: Thessaloniki International Airport (LGTS) at 18:05
Arrival: Brussels South Charleroi Airport (EBCI) at 21:05
Route: Ryanair Passenger Schedule. Enter filed route here before submitting Pirep.

Weather Information
Getting current METAR information for LGTS 252150Z 00000KT CAVOK 15/12 Q1020 NOSIG
Getting current METAR information for EBCI 252150Z 19010KT 9999 FEW012 09/07 Q1008 NOSIG

Schedule Frequency

Route Map